createdAt,value
2022-08-25T00:00:34.409Z,101626.50
2022-08-25T00:05:36.558Z,101619.25
2022-08-25T00:10:39.612Z,101629.56
2022-08-25T00:15:41.641Z,101626.03
2022-08-25T00:20:48.964Z,101626.69
2022-08-25T00:25:51.634Z,101629.56
2022-08-25T00:30:53.648Z,101628.72
2022-08-25T00:35:56.627Z,101623.44
2022-08-25T00:41:08.048Z,101621.38
2022-08-25T00:46:11.843Z,101619.66
2022-08-25T00:51:19.420Z,101612.06
2022-08-25T00:56:21.577Z,101616.53
2022-08-25T01:01:24.562Z,101612.09
2022-08-25T01:06:28.733Z,101610.72
2022-08-25T01:11:30.742Z,101604.84
2022-08-25T01:16:37.789Z,101600.69
2022-08-25T01:21:44.973Z,101605.63
2022-08-25T01:26:47.699Z,101592.16
2022-08-25T01:31:53.133Z,101586.06
2022-08-25T01:36:56.632Z,101587.06
2022-08-25T01:42:09.322Z,101592.47
2022-08-25T01:47:12.706Z,101590.09
2022-08-25T01:52:25.905Z,101584.72
2022-08-25T01:57:30.805Z,101555.19
2022-08-25T02:02:32.957Z,101574.94
2022-08-25T02:07:36.154Z,101578.13
2022-08-25T02:12:38.340Z,101569.16
2022-08-25T02:17:40.547Z,101552.50
2022-08-25T02:22:43.462Z,101543.09
2022-08-25T02:27:53.292Z,101545.94
2022-08-25T02:32:55.457Z,101529.63
2022-08-25T02:37:57.407Z,101527.94
2022-08-25T02:42:59.357Z,101517.72
2022-08-25T02:48:01.594Z,101510.13
2022-08-25T02:53:03.971Z,101487.25
2022-08-25T02:58:06.464Z,101505.81
2022-08-25T03:03:08.589Z,101483.72
2022-08-25T03:08:11.227Z,101497.38
2022-08-25T03:13:13.312Z,101488.47
2022-08-25T03:18:15.724Z,101481.25
2022-08-25T03:23:18.028Z,101488.16
2022-08-25T03:28:20.687Z,101510.00
2022-08-25T03:33:31.368Z,101493.00
2022-08-25T03:38:33.551Z,101485.56
2022-08-25T03:43:35.605Z,101463.25
2022-08-25T03:48:37.619Z,101472.34
2022-08-25T03:53:39.692Z,101458.91
2022-08-25T03:58:41.780Z,101450.16
2022-08-25T04:03:43.957Z,101452.00
2022-08-25T04:08:46.349Z,101430.19
2022-08-25T04:13:49.056Z,101422.38
2022-08-25T04:18:52.547Z,101403.69
2022-08-25T04:23:56.020Z,101390.81
2022-08-25T04:29:00.241Z,101383.22
2022-08-25T04:34:04.157Z,101402.91
2022-08-25T04:39:17.532Z,101414.03
2022-08-25T04:44:19.512Z,101437.50
2022-08-25T04:49:21.571Z,101452.31
2022-08-25T04:54:23.676Z,101453.81
2022-08-25T04:59:29.379Z,101471.66
2022-08-25T05:04:36.915Z,101475.19
2022-08-25T05:09:39.002Z,101473.69
2022-08-25T05:14:41.086Z,101491.34
2022-08-25T05:19:43.172Z,101483.63
2022-08-25T05:24:45.141Z,101497.94
2022-08-25T05:29:47.161Z,101503.50
2022-08-25T05:34:49.190Z,101514.59
2022-08-25T05:39:51.279Z,101528.53
2022-08-25T05:44:53.210Z,101535.91
2022-08-25T05:49:55.203Z,101536.06
2022-08-25T05:54:57.977Z,101535.56
2022-08-25T06:00:00.023Z,101545.34
2022-08-25T06:05:02.245Z,101553.72
2022-08-25T06:10:06.676Z,101570.56
2022-08-25T06:15:09.351Z,101589.41
2022-08-25T06:20:25.391Z,101589.91
2022-08-25T06:25:28.197Z,101610.31
2022-08-25T06:30:30.217Z,101612.84
2022-08-25T06:35:32.361Z,101621.22
2022-08-25T06:40:37.946Z,101626.81
2022-08-25T06:45:40.045Z,101632.75
2022-08-25T06:50:42.488Z,101635.75
2022-08-25T06:56:06.630Z,101646.03
2022-08-25T07:01:33.345Z,101634.97
2022-08-25T07:06:55.132Z,101638.19
2022-08-25T07:12:17.148Z,101638.56
2022-08-25T07:17:39.181Z,101641.78
2022-08-25T07:23:02.235Z,101640.56
2022-08-25T07:28:25.352Z,101647.28
2022-08-25T07:33:34.198Z,101649.66
2022-08-25T07:38:36.251Z,101629.59
2022-08-25T07:43:39.541Z,101653.25
2022-08-25T07:48:42.093Z,101652.06
2022-08-25T07:53:47.026Z,101649.41
2022-08-25T07:58:49.053Z,101649.78
2022-08-25T08:03:52.307Z,101657.00
2022-08-25T08:08:57.735Z,101646.44
2022-08-25T08:14:03.964Z,101649.47
2022-08-25T08:19:06.230Z,101643.44
2022-08-25T08:24:24.839Z,101643.63
2022-08-25T08:29:30.738Z,101656.91
2022-08-25T08:34:34.164Z,101657.59
2022-08-25T08:39:37.492Z,101658.25
2022-08-25T08:44:45.510Z,101650.19
2022-08-25T08:50:11.009Z,101671.03
2022-08-25T08:55:27.979Z,101665.84
2022-08-25T09:00:33.285Z,101676.13
2022-08-25T09:06:00.407Z,101677.13
2022-08-25T09:11:16.565Z,101675.13
2022-08-25T09:16:56.231Z,101679.81
2022-08-25T09:22:34.971Z,101677.63
2022-08-25T09:27:33.121Z,101687.75
2022-08-25T09:32:48.721Z,101697.19
2022-08-25T09:38:00.105Z,101692.63
2022-08-25T09:43:05.964Z,101682.50
2022-08-25T09:48:42.111Z,101687.75
2022-08-25T09:54:16.507Z,101692.31
2022-08-25T09:59:35.260Z,101687.44
2022-08-25T10:04:40.455Z,101683.75
2022-08-25T10:09:43.811Z,101672.13
2022-08-25T10:14:48.442Z,101665.53
2022-08-25T10:19:56.342Z,101662.19
2022-08-25T10:25:00.480Z,101666.97
2022-08-25T10:30:33.883Z,101656.19
2022-08-25T10:36:03.743Z,101645.75
2022-08-25T10:41:14.785Z,101653.03
2022-08-25T10:46:31.293Z,101646.63
2022-08-25T10:51:40.307Z,101642.41
2022-08-25T10:57:08.137Z,101641.03
2022-08-25T11:02:41.572Z,101626.56
2022-08-25T11:07:50.287Z,101638.38
2022-08-25T11:12:57.699Z,101625.41
2022-08-25T11:18:14.398Z,101608.53
2022-08-25T11:23:32.543Z,101612.44
2022-08-25T11:28:59.176Z,101617.69
2022-08-25T11:34:01.233Z,101618.88
2022-08-25T11:39:08.107Z,101612.47
2022-08-25T11:44:15.866Z,101607.06
2022-08-25T11:49:48.077Z,101609.25
2022-08-25T11:54:50.181Z,101603.19
2022-08-25T11:59:57.683Z,101590.88
2022-08-25T12:04:59.725Z,101588.00
2022-08-25T12:10:05.960Z,101580.94
2022-08-25T12:15:27.581Z,101584.31
2022-08-25T12:20:57.771Z,101576.06
2022-08-25T12:26:04.825Z,101583.31
2022-08-25T12:31:49.644Z,101573.84
2022-08-25T12:37:02.260Z,101575.88
2022-08-25T12:42:26.197Z,101573.34
2022-08-25T12:47:32.486Z,101567.09
2022-08-25T12:52:38.455Z,101557.16
2022-08-25T12:57:50.920Z,101556.47
2022-08-25T13:03:10.080Z,101558.16
2022-08-25T13:08:46.778Z,101552.78
2022-08-25T13:13:57.669Z,101548.38
2022-08-25T13:19:05.697Z,101547.38
2022-08-25T13:24:26.499Z,101549.22
2022-08-25T13:29:36.884Z,101549.41
2022-08-25T13:34:43.813Z,101551.94
2022-08-25T13:39:56.709Z,101532.22
2022-08-25T13:45:00.789Z,101540.47
2022-08-25T13:50:31.704Z,101531.56
2022-08-25T13:55:51.611Z,101537.59
2022-08-25T14:01:47.624Z,101537.59
2022-08-25T14:07:14.050Z,101539.44
2022-08-25T14:12:33.271Z,101544.00
2022-08-25T14:17:40.117Z,101547.38
2022-08-25T14:22:42.663Z,101553.63
2022-08-25T14:28:06.690Z,101537.59
2022-08-25T14:33:09.050Z,101522.09
2022-08-25T14:38:12.181Z,101520.25
2022-08-25T14:43:15.012Z,101500.19
2022-08-25T14:48:40.988Z,101507.94
2022-08-25T14:53:44.392Z,101503.38
2022-08-25T14:58:50.796Z,101489.22
2022-08-25T15:03:58.056Z,101470.50
2022-08-25T15:09:11.716Z,101475.38
2022-08-25T15:14:15.902Z,101474.88
2022-08-25T15:19:23.636Z,101486.03
2022-08-25T15:24:27.164Z,101478.41
2022-08-25T15:29:31.004Z,101508.41
2022-08-25T15:34:33.408Z,101510.94
2022-08-25T15:39:37.129Z,101511.28
2022-08-25T15:44:40.222Z,101521.06
2022-08-25T15:49:43.560Z,101510.56
2022-08-25T15:54:46.354Z,101499.28
2022-08-25T15:59:49.513Z,101485.78
2022-08-25T16:04:53.068Z,101463.66
2022-08-25T16:09:59.548Z,101473.25
2022-08-25T16:15:02.184Z,101483.03
2022-08-25T16:20:04.707Z,101479.16
2022-08-25T16:25:08.852Z,101469.38
2022-08-25T16:30:16.763Z,101466.69
2022-08-25T16:35:19.935Z,101463.81
2022-08-25T16:40:26.444Z,101453.00
2022-08-25T16:45:28.679Z,101451.47
2022-08-25T16:50:34.624Z,101457.03
2022-08-25T16:55:39.242Z,101470.53
2022-08-25T17:00:44.786Z,101464.13
2022-08-25T17:05:46.959Z,101479.47
2022-08-25T17:10:48.967Z,101481.00
2022-08-25T17:15:52.289Z,101496.69
2022-08-25T17:21:09.824Z,101506.63
2022-08-25T17:26:18.321Z,101513.72
2022-08-25T17:31:21.776Z,101509.00
2022-08-25T17:36:26.987Z,101511.34
2022-08-25T17:41:30.345Z,101523.00
2022-08-25T17:46:33.185Z,101509.19
2022-08-25T17:51:35.376Z,101500.91
2022-08-25T17:56:37.387Z,101515.06
2022-08-25T18:01:40.522Z,101513.19
2022-08-25T18:06:43.156Z,101524.00
2022-08-25T18:11:45.667Z,101530.94
2022-08-25T18:16:47.822Z,101532.47
2022-08-25T18:21:50.084Z,101540.88
2022-08-25T18:26:54.520Z,101536.66
2022-08-25T18:32:00.273Z,101522.19
2022-08-25T18:37:24.228Z,101515.28
2022-08-25T18:42:28.836Z,101509.88
2022-08-25T18:47:31.066Z,101523.91
2022-08-25T18:52:33.124Z,101513.25
2022-08-25T18:57:38.814Z,101505.19
2022-08-25T19:02:48.031Z,101514.81
2022-08-25T19:07:52.233Z,101531.84
2022-08-25T19:12:54.920Z,101520.03
2022-08-25T19:17:59.296Z,101539.56
2022-08-25T19:23:02.227Z,101535.88
2022-08-25T19:28:08.335Z,101532.16
2022-08-25T19:33:14.168Z,101538.72
2022-08-25T19:38:37.613Z,101529.13
2022-08-25T19:43:40.101Z,101527.94
2022-08-25T19:48:52.691Z,101523.56
2022-08-25T19:53:57.132Z,101526.59
2022-08-25T19:59:00.100Z,101530.00
2022-08-25T20:04:03.629Z,101531.69
2022-08-25T20:09:06.315Z,101528.63
2022-08-25T20:14:12.160Z,101520.38
2022-08-25T20:19:15.872Z,101524.75
2022-08-25T20:24:36.701Z,101516.81
2022-08-25T20:29:39.092Z,101516.66
2022-08-25T20:34:42.022Z,101529.66
2022-08-25T20:39:44.664Z,101530.47
2022-08-25T20:44:47.236Z,101533.19
2022-08-25T20:49:50.300Z,101513.13
2022-08-25T20:54:52.624Z,101499.78
2022-08-25T20:59:55.647Z,101519.53
2022-08-25T21:04:57.780Z,101508.88
2022-08-25T21:10:00.570Z,101510.78
2022-08-25T21:15:04.417Z,101499.63
2022-08-25T21:20:09.731Z,101501.47
2022-08-25T21:25:13.480Z,101522.91
2022-08-25T21:30:15.595Z,101521.91
2022-08-25T21:35:17.824Z,101520.38
2022-08-25T21:40:20.234Z,101519.88
2022-08-25T21:45:22.379Z,101517.72
2022-08-25T21:50:24.721Z,101522.94
2022-08-25T21:55:27.166Z,101533.91
2022-08-25T22:00:29.316Z,101536.78
2022-08-25T22:05:31.392Z,101559.34
2022-08-25T22:10:33.488Z,101560.88
2022-08-25T22:15:35.549Z,101554.47
2022-08-25T22:20:39.216Z,101558.69
2022-08-25T22:25:43.681Z,101544.19
2022-08-25T22:30:46.473Z,101552.44
2022-08-25T22:35:49.850Z,101546.03
2022-08-25T22:40:55.459Z,101524.28
2022-08-25T22:46:05.251Z,101515.53
2022-08-25T22:51:10.033Z,101517.91
2022-08-25T22:56:13.674Z,101509.13
2022-08-25T23:01:20.471Z,101502.72
2022-08-25T23:06:25.106Z,101493.78
2022-08-25T23:11:29.025Z,101498.66
2022-08-25T23:16:32.459Z,101499.34
2022-08-25T23:21:53.686Z,101496.84
2022-08-25T23:27:00.921Z,101513.50
2022-08-25T23:32:04.510Z,101491.75
2022-08-25T23:37:08.020Z,101497.50
2022-08-25T23:42:10.018Z,101498.34
2022-08-25T23:47:12.304Z,101503.75
2022-08-25T23:52:17.541Z,101501.06
2022-08-25T23:57:19.838Z,101494.97
